Time;durP1;ratioP1;P1;durP2;ratioP2;P2;SDS_P1;SDS_P2;PMS_P1;PMS_P2;Temp;Humidity;BMP_temperature;BMP_pressure;BME280_temperature;BME280_humidity;BME280_pressure;Samples;Min_cycle;Max_cycle;Signal;HPM_P1;HPM_P2
2021/05/05 00:00:16;;;;;;;5.40;4.25;;;;;;;;;;5135286;27;20618;-75
2021/05/05 00:02:44;;;;;;;7.53;4.55;;;;;;;;;;5134902;27;20320;-75
2021/05/05 00:05:11;;;;;;;4.82;4.28;;;;;;;;;;5135140;27;20303;-75
2021/05/05 00:07:39;;;;;;;4.85;4.35;;;;;;;;;;5134830;27;20673;-75
2021/05/05 00:10:06;;;;;;;6.68;5.70;;;;;;;;;;5135408;27;20192;-75
2021/05/05 00:12:34;;;;;;;4.85;4.45;;;;;;;;;;5134982;27;20200;-75
2021/05/05 00:15:01;;;;;;;5.07;4.68;;;;;;;;;;5134729;27;20648;-75
2021/05/05 00:17:28;;;;;;;4.63;4.22;;;;;;;;;;5134700;27;20283;-74
2021/05/05 00:19:55;;;;;;;4.85;4.35;;;;;;;;;;5134606;27;20200;-74
2021/05/05 00:22:21;;;;;;;4.72;3.95;;;;;;;;;;5134878;27;20283;-74
2021/05/05 00:24:49;;;;;;;4.72;4.35;;;;;;;;;;5134713;27;20213;-75
2021/05/05 00:27:16;;;;;;;4.85;4.45;;;;;;;;;;5134522;27;20188;-74
2021/05/05 00:29:42;;;;;;;5.15;4.75;;;;;;;;;;5134817;27;20222;-75
2021/05/05 00:32:09;;;;;;;5.82;5.32;;;;;;;;;;5134802;27;20193;-75
2021/05/05 00:34:36;;;;;;;5.85;5.38;;;;;;;;;;5134869;27;20671;-75
2021/05/05 00:37:02;;;;;;;5.38;4.88;;;;;;;;;;5135096;27;20258;-74
2021/05/05 00:39:29;;;;;;;6.03;4.80;;;;;;;;;;5134709;27;20295;-74
2021/05/05 00:41:57;;;;;;;4.75;4.35;;;;;;;;;;5134657;27;20189;-74
2021/05/05 00:44:24;;;;;;;7.43;5.50;;;;;;;;;;5134771;27;20243;-75
2021/05/05 00:46:51;;;;;;;4.30;3.95;;;;;;;;;;5134719;28;20657;-74
2021/05/05 00:49:17;;;;;;;5.72;5.22;;;;;;;;;;5134595;28;20596;-74
2021/05/05 00:51:44;;;;;;;5.22;4.82;;;;;;;;;;5134570;28;20197;-74
2021/05/05 00:54:11;;;;;;;5.80;5.30;;;;;;;;;;5134250;28;20192;-74
2021/05/05 00:56:38;;;;;;;6.60;6.00;;;;;;;;;;5134505;28;20237;-74
2021/05/05 00:59:05;;;;;;;5.65;5.05;;;;;;;;;;5134159;28;20643;-74
2021/05/05 01:01:32;;;;;;;5.55;5.03;;;;;;;;;;5134142;28;20207;-74
2021/05/05 01:03:59;;;;;;;6.25;5.68;;;;;;;;;;5134354;28;20189;-74
2021/05/05 01:06:26;;;;;;;4.72;4.32;;;;;;;;;;5134106;28;20197;-74
2021/05/05 01:08:52;;;;;;;7.25;6.30;;;;;;;;;;5134508;28;20194;-74
2021/05/05 01:11:19;;;;;;;6.50;5.90;;;;;;;;;;5134126;28;20192;-74
2021/05/05 01:13:46;;;;;;;5.45;4.97;;;;;;;;;;5134076;28;20530;-74
2021/05/05 01:16:15;;;;;;;7.35;6.65;;;;;;;;;;5134384;28;20291;-75
2021/05/05 01:18:42;;;;;;;5.35;4.85;;;;;;;;;;5134301;28;20281;-75
2021/05/05 01:21:10;;;;;;;5.97;5.10;;;;;;;;;;5134317;28;20582;-74
2021/05/05 01:23:36;;;;;;;5.88;5.13;;;;;;;;;;5134690;28;20337;-75
2021/05/05 01:26:03;;;;;;;5.63;5.15;;;;;;;;;;5135459;27;20234;-75
2021/05/05 01:28:30;;;;;;;5.05;3.78;;;;;;;;;;5137949;27;20277;-75
2021/05/05 01:30:57;;;;;;;4.10;3.80;;;;;;;;;;5138644;27;20226;-75
2021/05/05 01:33:24;;;;;;;4.88;4.47;;;;;;;;;;5137807;27;20671;-75
2021/05/05 01:35:51;;;;;;;6.03;5.53;;;;;;;;;;5138160;27;20229;-75
2021/05/05 01:38:19;;;;;;;9.57;5.30;;;;;;;;;;5138074;27;20196;-75
2021/05/05 01:40:45;;;;;;;6.20;5.60;;;;;;;;;;5137997;27;20194;-75
2021/05/05 01:43:12;;;;;;;5.65;5.15;;;;;;;;;;5137507;27;20235;-75
2021/05/05 01:45:39;;;;;;;6.03;5.47;;;;;;;;;;5137567;27;20741;-76
2021/05/05 01:48:07;;;;;;;7.65;6.55;;;;;;;;;;5137897;27;20281;-75
2021/05/05 01:50:34;;;;;;;5.97;5.47;;;;;;;;;;5137791;27;20223;-76
2021/05/05 01:53:00;;;;;;;8.80;6.63;;;;;;;;;;5138050;27;20285;-75
2021/05/05 01:55:28;;;;;;;8.10;7.30;;;;;;;;;;5137353;27;20198;-75
2021/05/05 01:57:55;;;;;;;9.07;7.10;;;;;;;;;;5137328;27;20232;-74
2021/05/05 02:00:23;;;;;;;8.52;7.70;;;;;;;;;;5137309;27;20207;-75
2021/05/05 02:02:49;;;;;;;8.75;7.38;;;;;;;;;;5137285;27;20231;-74
2021/05/05 02:05:16;;;;;;;8.63;7.47;;;;;;;;;;5137890;27;20299;-74
2021/05/05 02:07:43;;;;;;;6.35;5.85;;;;;;;;;;5137785;27;20200;-75
2021/05/05 02:10:11;;;;;;;8.07;7.38;;;;;;;;;;5137479;27;20645;-74
2021/05/05 02:12:39;;;;;;;9.35;8.55;;;;;;;;;;5137123;27;20196;-74
2021/05/05 02:15:07;;;;;;;6.95;6.35;;;;;;;;;;5137113;27;20288;-74
2021/05/05 02:17:35;;;;;;;6.93;6.28;;;;;;;;;;5137531;27;20192;-74
2021/05/05 02:20:01;;;;;;;5.50;5.15;;;;;;;;;;5137318;27;20192;-74
2021/05/05 02:22:28;;;;;;;7.97;7.20;;;;;;;;;;5136914;27;20197;-73
2021/05/05 02:24:57;;;;;;;7.88;5.88;;;;;;;;;;5136959;27;20609;-74
2021/05/05 02:27:24;;;;;;;6.63;5.97;;;;;;;;;;5137585;27;20296;-74
2021/05/05 02:29:52;;;;;;;7.85;6.20;;;;;;;;;;5137196;27;20200;-74
2021/05/05 02:32:21;;;;;;;6.38;5.82;;;;;;;;;;5136728;27;20192;-73
2021/05/05 02:34:48;;;;;;;5.35;4.75;;;;;;;;;;5137407;27;20244;-73
2021/05/05 02:37:15;;;;;;;12.73;6.55;;;;;;;;;;5136934;27;20223;-73
2021/05/05 02:39:43;;;;;;;7.63;6.55;;;;;;;;;;5136643;27;20193;-73
2021/05/05 02:42:10;;;;;;;7.15;6.45;;;;;;;;;;5137847;27;20227;-73
2021/05/05 02:44:37;;;;;;;7.40;5.93;;;;;;;;;;5137818;27;20273;-73
2021/05/05 02:47:05;;;;;;;5.85;5.32;;;;;;;;;;5136503;27;20189;-74
2021/05/05 02:49:32;;;;;;;8.65;5.72;;;;;;;;;;5136815;27;20286;-73
2021/05/05 02:51:59;;;;;;;9.52;5.68;;;;;;;;;;5136721;27;20201;-73
2021/05/05 02:54:25;;;;;;;6.10;5.20;;;;;;;;;;5136787;27;20202;-73
2021/05/05 02:56:52;;;;;;;5.40;4.78;;;;;;;;;;5136388;27;20663;-73
2021/05/05 02:59:19;;;;;;;6.25;5.65;;;;;;;;;;5136606;27;20276;-73
2021/05/05 03:01:45;;;;;;;10.30;6.28;;;;;;;;;;5137089;27;20237;-73
2021/05/05 03:04:13;;;;;;;9.68;5.82;;;;;;;;;;5136337;27;20196;-73
2021/05/05 03:06:40;;;;;;;8.27;5.45;;;;;;;;;;5136406;27;20188;-73
2021/05/05 03:09:07;;;;;;;7.20;4.85;;;;;;;;;;5136811;27;20193;-73
2021/05/05 03:11:34;;;;;;;4.88;4.47;;;;;;;;;;5135913;27;20305;-73
2021/05/05 03:14:00;;;;;;;9.07;5.28;;;;;;;;;;5136234;27;20210;-73
2021/05/05 03:16:27;;;;;;;10.75;4.75;;;;;;;;;;5136585;27;20269;-73
2021/05/05 03:18:54;;;;;;;7.65;5.30;;;;;;;;;;5136212;27;20283;-73
2021/05/05 03:21:21;;;;;;;5.95;4.70;;;;;;;;;;5136062;27;20195;-73
2021/05/05 03:23:48;;;;;;;4.78;4.30;;;;;;;;;;5135666;27;20288;-74
2021/05/05 03:26:15;;;;;;;6.80;4.13;;;;;;;;;;5135803;27;20220;-74
2021/05/05 03:28:42;;;;;;;4.75;4.30;;;;;;;;;;5136178;27;20197;-75
2021/05/05 03:31:09;;;;;;;7.93;4.95;;;;;;;;;;5135581;27;20192;-75
2021/05/05 03:33:35;;;;;;;6.38;3.83;;;;;;;;;;5135495;27;20198;-74
2021/05/05 03:36:02;;;;;;;7.10;5.55;;;;;;;;;;5135792;27;20203;-74
2021/05/05 03:38:30;;;;;;;7.03;4.45;;;;;;;;;;5135799;27;20219;-74
2021/05/05 03:40:57;;;;;;;7.80;4.43;;;;;;;;;;5135617;27;20199;-74
2021/05/05 03:43:23;;;;;;;4.00;3.63;;;;;;;;;;5135403;27;20228;-75
2021/05/05 03:45:50;;;;;;;5.38;4.97;;;;;;;;;;5135202;27;20216;-75
2021/05/05 03:48:17;;;;;;;7.45;5.43;;;;;;;;;;5134812;27;20288;-75
2021/05/05 03:50:44;;;;;;;5.32;4.75;;;;;;;;;;5135539;27;20215;-75
2021/05/05 03:53:11;;;;;;;4.72;3.90;;;;;;;;;;5135410;27;20188;-75
2021/05/05 03:55:38;;;;;;;4.97;4.55;;;;;;;;;;5135112;27;20205;-75
2021/05/05 03:58:05;;;;;;;5.82;4.55;;;;;;;;;;5135331;27;20193;-76
2021/05/05 04:00:31;;;;;;;4.75;4.43;;;;;;;;;;5134992;27;20199;-75
2021/05/05 04:02:58;;;;;;;6.38;5.57;;;;;;;;;;5135773;27;20231;-74
2021/05/05 04:05:25;;;;;;;5.93;5.32;;;;;;;;;;5135477;27;20303;-75
2021/05/05 04:07:52;;;;;;;6.60;5.18;;;;;;;;;;5134843;27;20749;-75
2021/05/05 04:10:19;;;;;;;6.43;5.82;;;;;;;;;;5135131;27;20295;-74
2021/05/05 04:12:46;;;;;;;4.45;4.13;;;;;;;;;;5135068;27;20192;-75
2021/05/05 04:15:13;;;;;;;5.05;4.65;;;;;;;;;;5135355;27;20572;-75
2021/05/05 04:17:40;;;;;;;5.22;4.82;;;;;;;;;;5135097;27;20655;-75
2021/05/05 04:20:08;;;;;;;5.10;4.65;;;;;;;;;;5135006;27;20225;-75
2021/05/05 04:22:35;;;;;;;4.15;3.85;;;;;;;;;;5135298;27;20192;-75
2021/05/05 04:25:01;;;;;;;5.63;5.22;;;;;;;;;;5134589;27;20209;-75
2021/05/05 04:27:28;;;;;;;5.68;5.07;;;;;;;;;;5135381;27;20288;-75
2021/05/05 04:29:56;;;;;;;5.95;5.35;;;;;;;;;;5135114;27;20213;-77
2021/05/05 04:32:23;;;;;;;5.03;4.05;;;;;;;;;;5134586;27;20294;-74
2021/05/05 04:34:49;;;;;;;6.00;5.40;;;;;;;;;;5134963;27;20203;-75
2021/05/05 04:37:16;;;;;;;6.55;4.10;;;;;;;;;;5134440;27;20192;-74
2021/05/05 04:39:43;;;;;;;6.50;4.47;;;;;;;;;;5135032;27;20286;-72
2021/05/05 04:42:11;;;;;;;5.90;4.93;;;;;;;;;;5134688;27;20288;-74
2021/05/05 04:44:38;;;;;;;6.22;4.07;;;;;;;;;;5135147;27;20289;-74
2021/05/05 04:47:05;;;;;;;9.25;4.80;;;;;;;;;;5134784;28;20192;-78
2021/05/05 04:49:32;;;;;;;4.47;4.07;;;;;;;;;;5135044;28;20192;-76
2021/05/05 04:51:59;;;;;;;9.18;4.30;;;;;;;;;;5134283;28;20196;-76
2021/05/05 04:54:25;;;;;;;3.35;3.15;;;;;;;;;;5127215;27;20569;-76
2021/05/05 04:56:52;;;;;;;5.00;3.72;;;;;;;;;;5122657;28;20288;-76
2021/05/05 04:59:19;;;;;;;4.28;2.92;;;;;;;;;;5125923;27;20196;-77
2021/05/05 05:01:46;;;;;;;7.95;3.80;;;;;;;;;;5138447;27;20663;-77
2021/05/05 05:04:13;;;;;;;6.93;3.70;;;;;;;;;;5138182;27;20283;-77
2021/05/05 05:06:40;;;;;;;4.18;2.75;;;;;;;;;;5138706;27;20252;-76
2021/05/05 05:09:07;;;;;;;3.25;2.85;;;;;;;;;;5138360;27;20279;-75
2021/05/05 05:11:34;;;;;;;9.50;3.10;;;;;;;;;;5138257;27;20224;-77
2021/05/05 05:14:00;;;;;;;4.30;2.63;;;;;;;;;;5138500;27;20283;-76
2021/05/05 05:16:27;;;;;;;5.95;3.03;;;;;;;;;;5138457;27;20196;-77
2021/05/05 05:18:54;;;;;;;2.83;2.50;;;;;;;;;;5138151;27;20193;-76
2021/05/05 05:21:21;;;;;;;3.30;3.10;;;;;;;;;;5138554;27;20269;-75
2021/05/05 05:23:48;;;;;;;5.40;3.08;;;;;;;;;;5137901;27;20245;-76
2021/05/05 05:26:15;;;;;;;4.40;2.88;;;;;;;;;;5133802;27;20244;-77
2021/05/05 05:28:41;;;;;;;7.30;3.03;;;;;;;;;;5117418;28;20189;-77
2021/05/05 05:31:08;;;;;;;5.97;3.58;;;;;;;;;;5117303;28;20196;-77
2021/05/05 05:33:35;;;;;;;6.30;3.70;;;;;;;;;;5117243;28;20645;-77
2021/05/05 05:36:02;;;;;;;2.85;2.65;;;;;;;;;;5117508;28;20198;-75
2021/05/05 05:38:29;;;;;;;3.92;3.42;;;;;;;;;;5117081;28;20193;-76
2021/05/05 05:40:56;;;;;;;8.25;2.60;;;;;;;;;;5116964;28;20194;-76
2021/05/05 05:43:23;;;;;;;3.03;2.20;;;;;;;;;;5119170;27;20694;-75
2021/05/05 05:45:49;;;;;;;6.43;4.00;;;;;;;;;;5125493;27;20223;-77
2021/05/05 05:48:16;;;;;;;4.35;2.55;;;;;;;;;;5131618;27;20308;-75
2021/05/05 05:50:43;;;;;;;2.60;2.40;;;;;;;;;;5158628;27;20378;-75
2021/05/05 05:53:10;;;;;;;4.53;3.42;;;;;;;;;;5158723;27;20188;-76
2021/05/05 05:55:41;;;;;;;6.93;3.08;;;;;;;;;;5158555;27;20192;-76
2021/05/05 05:58:08;;;;;;;9.07;3.55;;;;;;;;;;5158613;27;20180;-76
2021/05/05 06:00:34;;;;;;;5.50;3.90;;;;;;;;;;5158915;27;20231;-76
2021/05/05 06:03:04;;;;;;;9.57;4.63;;;;;;;;;;5158372;27;20199;-77
2021/05/05 06:05:34;;;;;;;12.02;4.55;;;;;;;;;;5157895;27;20240;-76
2021/05/05 06:08:01;;;;;;;8.43;4.22;;;;;;;;;;5158726;27;20202;-77
2021/05/05 06:10:28;;;;;;;4.43;3.60;;;;;;;;;;5157812;27;20188;-76
2021/05/05 06:12:56;;;;;;;5.00;3.85;;;;;;;;;;5145629;27;20229;-76
2021/05/05 06:15:23;;;;;;;4.00;3.70;;;;;;;;;;5117436;28;20225;-76
2021/05/05 06:17:50;;;;;;;7.72;4.65;;;;;;;;;;5116617;28;20208;-76
2021/05/05 06:20:17;;;;;;;6.88;3.92;;;;;;;;;;5116668;28;20225;-75
2021/05/05 06:22:44;;;;;;;5.53;4.15;;;;;;;;;;5116586;28;20664;-74
2021/05/05 06:25:11;;;;;;;8.63;4.53;;;;;;;;;;5116151;28;20765;-74
2021/05/05 06:27:38;;;;;;;11.30;5.35;;;;;;;;;;5116426;28;20203;-74
2021/05/05 06:30:07;;;;;;;5.03;3.90;;;;;;;;;;5116104;28;20729;-74
2021/05/05 06:32:33;;;;;;;7.80;4.45;;;;;;;;;;5116707;28;20299;-74
2021/05/05 06:35:00;;;;;;;7.97;4.22;;;;;;;;;;5116395;28;20201;-74
2021/05/05 06:37:27;;;;;;;12.02;5.18;;;;;;;;;;5116866;28;20561;-74
2021/05/05 06:39:56;;;;;;;8.95;5.07;;;;;;;;;;5116341;28;20197;-74
2021/05/05 06:42:23;;;;;;;7.70;4.45;;;;;;;;;;5115681;28;20287;-74
2021/05/05 06:44:50;;;;;;;10.82;6.82;;;;;;;;;;5116204;28;20230;-74
2021/05/05 06:47:17;;;;;;;12.70;5.50;;;;;;;;;;5115765;28;20289;-74
2021/05/05 06:49:44;;;;;;;14.75;6.45;;;;;;;;;;5115556;28;20196;-73
2021/05/05 06:52:11;;;;;;;5.60;5.20;;;;;;;;;;5115347;28;20288;-73
2021/05/05 06:54:38;;;;;;;8.52;6.22;;;;;;;;;;5115531;28;20285;-74
2021/05/05 06:57:05;;;;;;;11.05;6.07;;;;;;;;;;5115849;28;20282;-74
2021/05/05 06:59:32;;;;;;;7.50;5.38;;;;;;;;;;5115358;28;20202;-73
2021/05/05 07:01:58;;;;;;;12.57;6.13;;;;;;;;;;5115603;28;20288;-73
2021/05/05 07:04:26;;;;;;;7.32;5.40;;;;;;;;;;5115335;28;20189;-73
2021/05/05 07:06:54;;;;;;;3.45;3.25;;;;;;;;;;5115941;28;20394;-73
2021/05/05 07:09:21;;;;;;;5.40;4.45;;;;;;;;;;5116007;28;20198;-74
2021/05/05 07:11:48;;;;;;;5.65;5.13;;;;;;;;;;5115695;28;20193;-74
2021/05/05 07:14:15;;;;;;;10.05;5.70;;;;;;;;;;5115199;28;20204;-73
2021/05/05 07:16:41;;;;;;;5.38;4.60;;;;;;;;;;5115640;28;20763;-73
2021/05/05 07:19:08;;;;;;;8.70;7.05;;;;;;;;;;5115523;28;20326;-74
2021/05/05 07:21:36;;;;;;;9.43;5.32;;;;;;;;;;5115668;28;20258;-74
2021/05/05 07:24:02;;;;;;;8.02;6.70;;;;;;;;;;5114046;28;20681;-74
2021/05/05 07:26:29;;;;;;;11.10;5.28;;;;;;;;;;5115270;28;20273;-73
2021/05/05 07:28:56;;;;;;;8.32;6.18;;;;;;;;;;5114975;28;20227;-73
2021/05/05 07:31:23;;;;;;;9.02;7.18;;;;;;;;;;5115265;28;20220;-73
2021/05/05 07:33:51;;;;;;;8.32;6.97;;;;;;;;;;5114871;28;20738;-74
2021/05/05 07:36:20;;;;;;;5.30;4.90;;;;;;;;;;5115452;28;20557;-74
2021/05/05 07:38:58;;;;;;;6.30;5.70;;;;;;;;;;5115300;28;20216;-75
2021/05/05 07:47:08;;;;;;;4.88;3.53;;;;;;;;;;5107578;28;20250;-75
2021/05/05 07:49:42;;;;;;;4.75;4.03;;;;;;;;;;5115028;28;20284;-74
2021/05/05 07:52:09;;;;;;;8.32;4.25;;;;;;;;;;5115065;28;20189;-76
2021/05/05 07:54:36;;;;;;;4.55;3.50;;;;;;;;;;5114597;28;20706;-76
2021/05/05 07:57:04;;;;;;;6.15;4.00;;;;;;;;;;5114676;28;20204;-74
2021/05/05 07:59:30;;;;;;;4.43;3.40;;;;;;;;;;5114533;28;20228;-75
2021/05/05 08:01:57;;;;;;;3.42;2.85;;;;;;;;;;5114852;28;20277;-77
2021/05/05 08:04:24;;;;;;;13.02;4.15;;;;;;;;;;5114289;28;20228;-77
2021/05/05 08:06:51;;;;;;;5.30;4.35;;;;;;;;;;5114904;28;20214;-74
2021/05/05 08:09:26;;;;;;;8.52;4.80;;;;;;;;;;5114345;28;20236;-74
2021/05/05 08:11:54;;;;;;;14.13;4.82;;;;;;;;;;5117697;27;20200;-75
2021/05/05 08:14:21;;;;;;;5.90;3.90;;;;;;;;;;5123272;27;20202;-75
2021/05/05 08:16:48;;;;;;;6.90;3.47;;;;;;;;;;5114828;28;20197;-74
2021/05/05 08:19:15;;;;;;;19.88;4.15;;;;;;;;;;5114996;28;20280;-76
2021/05/05 08:21:42;;;;;;;7.88;4.20;;;;;;;;;;5114311;28;20296;-75
2021/05/05 08:24:09;;;;;;;7.68;4.50;;;;;;;;;;5113989;28;20189;-75
2021/05/05 08:26:36;;;;;;;14.13;3.90;;;;;;;;;;5113950;28;20216;-75
2021/05/05 08:29:03;;;;;;;9.70;3.72;;;;;;;;;;5114886;28;20194;-75
2021/05/05 08:31:30;;;;;;;5.15;3.55;;;;;;;;;;5114434;28;20574;-75
2021/05/05 08:33:57;;;;;;;8.52;4.55;;;;;;;;;;5114353;28;20205;-73
2021/05/05 08:36:24;;;;;;;3.33;3.10;;;;;;;;;;5113937;28;20193;-74
2021/05/05 08:38:52;;;;;;;4.85;3.42;;;;;;;;;;5113796;28;20228;-74
2021/05/05 08:41:20;;;;;;;6.07;3.55;;;;;;;;;;5113938;28;20227;-74
2021/05/05 08:43:46;;;;;;;16.58;3.00;;;;;;;;;;5114487;28;20252;-73
2021/05/05 08:46:15;;;;;;;6.13;2.63;;;;;;;;;;5114469;28;20212;-74
2021/05/05 08:48:42;;;;;;;9.68;3.75;;;;;;;;;;5114974;28;20194;-74
2021/05/05 08:51:11;;;;;;;8.60;2.70;;;;;;;;;;5114218;28;20624;-73
2021/05/05 08:53:38;;;;;;;5.32;3.20;;;;;;;;;;5113638;28;20193;-75
2021/05/05 08:56:05;;;;;;;7.68;2.40;;;;;;;;;;5113728;28;20658;-76
2021/05/05 08:58:32;;;;;;;5.93;3.17;;;;;;;;;;5113818;28;20200;-79
2021/05/05 09:00:58;;;;;;;4.10;2.17;;;;;;;;;;5114155;28;20231;-76
2021/05/05 09:03:31;;;;;;;4.47;2.70;;;;;;;;;;5113548;28;20726;-70
2021/05/05 09:05:58;;;;;;;8.95;3.40;;;;;;;;;;5114086;28;20214;-71
2021/05/05 09:08:27;;;;;;;5.85;2.25;;;;;;;;;;5113522;28;20194;-71
2021/05/05 09:10:59;;;;;;;2.80;1.70;;;;;;;;;;5114267;28;20276;-70
2021/05/05 09:13:41;;;;;;;2.88;2.10;;;;;;;;;;5113912;28;20288;-71
2021/05/05 09:16:08;;;;;;;3.38;2.50;;;;;;;;;;5112477;28;20279;-71
2021/05/05 09:18:49;;;;;;;2.78;2.20;;;;;;;;;;5113729;28;20289;-71
2021/05/05 09:21:23;;;;;;;3.70;2.63;;;;;;;;;;5113497;28;20647;-71
2021/05/05 09:23:50;;;;;;;4.10;2.30;;;;;;;;;;5113821;28;20190;-70
2021/05/05 09:26:31;;;;;;;5.50;2.70;;;;;;;;;;5113869;28;20291;-70
2021/05/05 09:28:58;;;;;;;4.55;2.55;;;;;;;;;;5114198;28;20281;-70
2021/05/05 09:31:32;;;;;;;3.63;2.38;;;;;;;;;;5114035;28;20293;-70
2021/05/05 09:33:59;;;;;;;4.82;2.67;;;;;;;;;;5113342;28;20201;-70
2021/05/05 09:36:26;;;;;;;2.92;2.72;;;;;;;;;;5113169;28;20194;-73
2021/05/05 09:38:53;;;;;;;22.67;2.95;;;;;;;;;;5113108;28;20293;-78
2021/05/05 09:41:20;;;;;;;8.48;4.10;;;;;;;;;;5113314;28;20189;-78
2021/05/05 09:43:47;;;;;;;4.95;2.90;;;;;;;;;;5113758;28;20374;-77
2021/05/05 09:46:29;;;;;;;4.30;2.97;;;;;;;;;;5113597;28;20275;-76
2021/05/05 09:48:58;;;;;;;6.53;2.30;;;;;;;;;;5117423;28;20281;-69
2021/05/05 09:51:26;;;;;;;5.57;2.50;;;;;;;;;;5117151;28;20189;-70
2021/05/05 09:53:55;;;;;;;5.72;2.60;;;;;;;;;;5117493;28;20197;-68
2021/05/05 09:56:22;;;;;;;6.10;2.60;;;;;;;;;;5117032;28;20715;-68
2021/05/05 09:58:49;;;;;;;2.35;1.95;;;;;;;;;;5117076;28;20197;-70
2021/05/05 10:01:20;;;;;;;3.10;2.63;;;;;;;;;;5117971;28;20190;-70
2021/05/05 10:03:48;;;;;;;4.05;1.73;;;;;;;;;;5117530;28;20183;-69
2021/05/05 10:06:18;;;;;;;2.63;2.08;;;;;;;;;;5117279;28;20279;-69
2021/05/05 10:08:45;;;;;;;3.05;2.00;;;;;;;;;;5117797;28;20712;-70
2021/05/05 10:11:13;;;;;;;2.05;1.95;;;;;;;;;;5116976;28;20191;-71
2021/05/05 10:13:40;;;;;;;3.88;2.55;;;;;;;;;;5117387;28;20645;-71
2021/05/05 10:16:08;;;;;;;5.65;2.97;;;;;;;;;;5116665;28;20205;-70
2021/05/05 10:18:34;;;;;;;6.28;2.53;;;;;;;;;;5117009;28;20284;-70
2021/05/05 10:21:01;;;;;;;2.45;2.25;;;;;;;;;;5116474;28;20737;-70
2021/05/05 10:23:28;;;;;;;3.70;1.80;;;;;;;;;;5116355;28;20662;-69
2021/05/05 10:25:55;;;;;;;5.38;2.10;;;;;;;;;;5116574;28;20310;-71
2021/05/05 10:28:23;;;;;;;2.65;1.83;;;;;;;;;;5116601;28;20197;-69
2021/05/05 10:30:50;;;;;;;5.22;2.05;;;;;;;;;;5116126;28;20193;-69
2021/05/05 10:33:20;;;;;;;1.90;1.80;;;;;;;;;;5115953;28;20282;-69
2021/05/05 10:35:47;;;;;;;2.72;2.15;;;;;;;;;;5116982;28;20541;-68
2021/05/05 10:38:29;;;;;;;3.72;2.08;;;;;;;;;;5115898;28;20193;-68
2021/05/05 10:41:06;;;;;;;2.65;1.95;;;;;;;;;;5116075;27;20200;-69
2021/05/05 10:43:46;;;;;;;1.98;1.73;;;;;;;;;;5115622;28;20222;-70
2021/05/05 10:46:24;;;;;;;2.55;2.03;;;;;;;;;;5116623;28;20240;-70
2021/05/05 10:49:01;;;;;;;4.68;3.13;;;;;;;;;;5116604;28;20189;-71
2021/05/05 10:51:59;;;;;;;2.90;2.60;;;;;;;;;;5116217;28;20189;-72
2021/05/05 10:54:46;;;;;;;6.35;2.78;;;;;;;;;;5115928;28;20182;-79
2021/05/05 10:57:13;;;;;;;4.05;2.50;;;;;;;;;;5115426;28;20193;-75
2021/05/05 10:59:55;;;;;;;6.57;2.65;;;;;;;;;;5116066;28;20535;-75
2021/05/05 11:02:44;;;;;;;3.50;2.72;;;;;;;;;;5116248;27;20279;-76
2021/05/05 11:05:12;;;;;;;3.55;2.33;;;;;;;;;;5116189;28;20179;-77
2021/05/05 11:07:49;;;;;;;3.95;1.90;;;;;;;;;;5115706;28;20315;-73
2021/05/05 11:10:35;;;;;;;1.80;1.35;;;;;;;;;;5116158;28;20255;-78
2021/05/05 11:13:02;;;;;;;1.70;1.58;;;;;;;;;;5115863;28;20220;-72
2021/05/05 11:15:44;;;;;;;9.80;2.20;;;;;;;;;;5115984;28;20199;-76
2021/05/05 11:18:30;;;;;;;6.75;1.85;;;;;;;;;;5115403;28;20193;-76
2021/05/05 11:20:59;;;;;;;6.53;2.33;;;;;;;;;;5115050;28;20201;-68
2021/05/05 11:23:45;;;;;;;8.27;2.40;;;;;;;;;;5115630;28;20251;-77
2021/05/05 11:26:18;;;;;;;4.43;1.98;;;;;;;;;;5114950;28;20555;-78
2021/05/05 11:28:54;;;;;;;5.60;2.95;;;;;;;;;;5115213;28;20200;-80
2021/05/05 11:31:21;;;;;;;7.45;2.47;;;;;;;;;;5115503;28;20213;-76
2021/05/05 11:33:54;;;;;;;7.95;3.00;;;;;;;;;;5116178;28;20233;-77
2021/05/05 11:36:22;;;;;;;5.82;2.05;;;;;;;;;;5115490;28;20229;-80
2021/05/05 11:38:49;;;;;;;2.88;2.03;;;;;;;;;;5115787;28;20273;-81
2021/05/05 11:41:21;;;;;;;8.52;3.70;;;;;;;;;;5116068;28;20658;-80
2021/05/05 11:43:47;;;;;;;7.85;2.83;;;;;;;;;;5116081;28;20309;-81
2021/05/05 11:46:15;;;;;;;4.72;3.00;;;;;;;;;;5116041;28;20270;-82
2021/05/05 11:48:42;;;;;;;4.57;2.45;;;;;;;;;;5115421;28;20276;-80
2021/05/05 11:51:23;;;;;;;8.43;2.58;;;;;;;;;;5114940;28;20233;-75
2021/05/05 11:53:51;;;;;;;9.07;2.42;;;;;;;;;;5115058;28;20196;-75
2021/05/05 11:56:18;;;;;;;4.15;2.30;;;;;;;;;;5114741;28;20198;-78
2021/05/05 11:58:53;;;;;;;5.38;1.88;;;;;;;;;;5114728;28;20287;-76
2021/05/05 12:01:28;;;;;;;6.72;2.17;;;;;;;;;;5114995;28;20326;-78
2021/05/05 12:04:12;;;;;;;6.50;1.95;;;;;;;;;;5114772;28;20212;-79
2021/05/05 12:06:50;;;;;;;4.30;2.20;;;;;;;;;;5115251;28;20211;-79
2021/05/05 12:09:27;;;;;;;3.20;2.00;;;;;;;;;;5114667;28;20354;-80
2021/05/05 12:12:14;;;;;;;2.70;2.00;;;;;;;;;;5115224;28;20242;-79
2021/05/05 12:14:42;;;;;;;3.65;2.60;;;;;;;;;;5114840;28;20699;-79
2021/05/05 12:17:14;;;;;;;6.05;3.58;;;;;;;;;;5116305;28;20205;-80
2021/05/05 12:19:41;;;;;;;3.65;2.35;;;;;;;;;;5115567;28;20185;-79
2021/05/05 12:22:14;;;;;;;5.07;2.63;;;;;;;;;;5115420;28;20280;-81
2021/05/05 12:24:41;;;;;;;6.82;2.50;;;;;;;;;;5114579;28;20263;-79
2021/05/05 12:27:08;;;;;;;2.42;2.22;;;;;;;;;;5114417;28;20307;-79
2021/05/05 12:29:35;;;;;;;2.80;2.60;;;;;;;;;;5114086;28;20190;-81
2021/05/05 12:32:03;;;;;;;5.10;2.38;;;;;;;;;;5114334;28;20254;-80
2021/05/05 12:34:32;;;;;;;6.25;2.33;;;;;;;;;;5115151;28;20221;-79
2021/05/05 12:37:00;;;;;;;6.95;2.28;;;;;;;;;;5115403;28;20631;-79
2021/05/05 12:39:28;;;;;;;7.18;3.28;;;;;;;;;;5113805;28;20204;-72
2021/05/05 12:41:55;;;;;;;3.90;2.00;;;;;;;;;;5113794;28;20200;-76
2021/05/05 12:44:22;;;;;;;3.80;2.33;;;;;;;;;;5113739;28;20233;-78
2021/05/05 12:46:55;;;;;;;7.00;2.70;;;;;;;;;;5114275;28;20218;-78
2021/05/05 12:49:26;;;;;;;3.95;1.98;;;;;;;;;;5115144;28;20193;-78
2021/05/05 12:51:52;;;;;;;2.55;1.63;;;;;;;;;;5114449;28;20255;-76
2021/05/05 12:54:24;;;;;;;1.85;1.40;;;;;;;;;;5114910;28;20606;-78
2021/05/05 12:56:52;;;;;;;4.03;2.25;;;;;;;;;;5114297;28;20197;-81
2021/05/05 12:59:20;;;;;;;5.63;2.13;;;;;;;;;;5114798;28;20193;-80
2021/05/05 13:01:49;;;;;;;2.17;1.95;;;;;;;;;;5114536;28;20237;-79
2021/05/05 13:04:18;;;;;;;2.75;1.65;;;;;;;;;;5114101;28;20189;-79
2021/05/05 13:06:45;;;;;;;2.25;2.03;;;;;;;;;;5113713;28;20660;-79
2021/05/05 13:09:14;;;;;;;12.38;2.70;;;;;;;;;;5114155;28;20201;-80
2021/05/05 13:11:43;;;;;;;6.10;2.00;;;;;;;;;;5113682;28;20202;-80
2021/05/05 13:14:15;;;;;;;6.85;2.95;;;;;;;;;;5114046;28;20301;-80
2021/05/05 13:17:02;;;;;;;8.00;2.85;;;;;;;;;;5114224;28;20189;-80
2021/05/05 13:20:07;;;;;;;6.97;3.10;;;;;;;;;;5113970;28;20540;-75
2021/05/05 13:31:23;;;;;;;7.45;2.75;;;;;;;;;;5117861;28;20195;-79
2021/05/05 13:34:00;;;;;;;4.85;2.00;;;;;;;;;;5118001;28;20282;-76
2021/05/05 13:36:41;;;;;;;4.20;2.70;;;;;;;;;;5117979;28;20202;-78
2021/05/05 13:39:08;;;;;;;4.07;2.40;;;;;;;;;;5124142;27;20286;-79
2021/05/05 13:41:35;;;;;;;7.55;2.97;;;;;;;;;;5137032;27;20221;-79
2021/05/05 13:44:04;;;;;;;8.20;2.90;;;;;;;;;;5137372;27;20270;-78
2021/05/05 13:46:35;;;;;;;9.80;2.58;;;;;;;;;;5138605;27;20243;-79
2021/05/05 13:49:04;;;;;;;7.93;2.65;;;;;;;;;;5138430;27;20225;-79
2021/05/05 13:51:31;;;;;;;4.90;2.45;;;;;;;;;;5137610;27;20202;-78
2021/05/05 13:53:58;;;;;;;6.90;3.17;;;;;;;;;;5138021;27;20298;-76
2021/05/05 13:56:26;;;;;;;5.85;3.13;;;;;;;;;;5137632;27;20210;-80
2021/05/05 13:58:53;;;;;;;8.73;3.05;;;;;;;;;;5138494;27;20199;-79
2021/05/05 14:01:20;;;;;;;9.57;4.82;;;;;;;;;;5137964;27;20582;-78
2021/05/05 14:03:48;;;;;;;9.35;3.33;;;;;;;;;;5138540;27;20189;-76
2021/05/05 14:06:15;;;;;;;5.85;2.65;;;;;;;;;;5137184;27;20213;-75
2021/05/05 14:08:43;;;;;;;9.27;4.15;;;;;;;;;;5123462;27;20195;-76
2021/05/05 14:11:10;;;;;;;17.75;3.60;;;;;;;;;;5116690;28;20608;-77
2021/05/05 14:13:37;;;;;;;5.18;3.17;;;;;;;;;;5116723;28;20197;-75
2021/05/05 14:16:04;;;;;;;3.30;2.70;;;;;;;;;;5116376;28;20281;-75
2021/05/05 14:18:31;;;;;;;12.43;2.63;;;;;;;;;;5116410;28;20198;-76
2021/05/05 14:21:06;;;;;;;10.13;3.20;;;;;;;;;;5116876;28;20645;-74
2021/05/05 14:23:32;;;;;;;11.43;3.40;;;;;;;;;;5116825;28;20645;-76
2021/05/05 14:26:00;;;;;;;5.00;2.40;;;;;;;;;;5116189;28;20753;-75
2021/05/05 14:28:26;;;;;;;4.97;3.30;;;;;;;;;;5116052;28;20240;-74
2021/05/05 14:30:53;;;;;;;4.22;2.30;;;;;;;;;;5116736;28;20294;-76
2021/05/05 14:33:29;;;;;;;7.40;2.40;;;;;;;;;;5115985;28;20554;-76
2021/05/05 14:35:56;;;;;;;6.75;3.05;;;;;;;;;;5116650;28;20220;-77
2021/05/05 14:38:25;;;;;;;7.75;3.05;;;;;;;;;;5116078;28;20203;-78
2021/05/05 14:40:53;;;;;;;7.97;2.28;;;;;;;;;;5116960;28;20284;-79
2021/05/05 14:43:26;;;;;;;7.60;2.88;;;;;;;;;;5116021;28;20313;-76
2021/05/05 14:46:00;;;;;;;3.07;2.07;;;;;;;;;;5116160;28;20211;-77
2021/05/05 14:48:29;;;;;;;5.57;2.78;;;;;;;;;;5115709;28;20431;-75
2021/05/05 14:50:55;;;;;;;7.35;2.83;;;;;;;;;;5115726;28;20192;-75
2021/05/05 14:53:22;;;;;;;7.05;2.60;;;;;;;;;;5116415;28;20264;-74
2021/05/05 14:55:51;;;;;;;3.47;1.95;;;;;;;;;;5115999;28;20203;-74
2021/05/05 14:58:21;;;;;;;5.05;2.85;;;;;;;;;;5115979;28;20196;-75
2021/05/05 15:00:47;;;;;;;4.10;2.55;;;;;;;;;;5115552;28;20194;-75
2021/05/05 15:03:15;;;;;;;3.47;2.17;;;;;;;;;;5115867;28;20223;-74
2021/05/05 15:05:42;;;;;;;7.35;2.25;;;;;;;;;;5116070;28;20226;-75